ESSP/NRK METAR and TAF weather

Enter ICAO airport designator
Station Type Date Time Source
ESSP METAR 2019/06/16 06:20 UTC NOAA

ESSP 160620Z VRB02KT CAVOK 19/14 Q1014


Station Type Date Time Source
ESSP Decoded METAR 2019/06/16 06:20 UTC NOAA

Norrkoping, Sweden (ESSP) 58-35N 016-09E 0M
Jun 16, 2019 - 02:20 AM EDT / 2019.06.16 0620 UTC
Wind: Variable at 2 MPH (2 KT):0
Visibility: greater than 7 mile(s):0
Temperature: 66 F (19 C)
Dew Point: 57 F (14 C)
Relative Humidity: 72%
Pressure (altimeter): 29.94 in. Hg (1014 hPa)
ob: ESSP 160620Z VRB02KT CAVOK 19/14 Q1014
cycle: 6

Station Type Date Time Source
ESSP TAF 2018/01/01 02:31 UTC NOAA

TAF ESSP 010130Z 0102/0206 16002KT 9999 BKN004 PROB40 0102/0106 4000 BR SCT004

Example: see airport list